createdAt,value
2023-03-08T00:00:27.237Z,90.57
2023-03-08T00:02:56.594Z,89.62
2023-03-08T00:05:23.085Z,89.79
2023-03-08T00:07:52.772Z,89.28
2023-03-08T00:10:19.478Z,89.03
2023-03-08T00:12:45.995Z,88.87
2023-03-08T00:15:15.590Z,90.29
2023-03-08T00:17:44.822Z,91.31
2023-03-08T00:20:12.671Z,91.96
2023-03-08T00:22:40.285Z,91.31
2023-03-08T00:25:08.925Z,89.35
2023-03-08T00:27:36.945Z,88.91
2023-03-08T00:30:06.186Z,88.94
2023-03-08T00:32:32.905Z,87.75
2023-03-08T00:34:59.720Z,87.37
2023-03-08T00:37:26.157Z,86.27
2023-03-08T00:39:53.669Z,85.29
2023-03-08T00:42:21.402Z,85.74
2023-03-08T00:44:48.477Z,84.33
2023-03-08T00:47:15.586Z,84.01
2023-03-08T00:49:42.844Z,83.36
2023-03-08T00:52:10.188Z,82.92
2023-03-08T00:54:36.863Z,82.86
2023-03-08T00:57:03.538Z,82.45
2023-03-08T00:59:30.054Z,81.39
2023-03-08T01:01:56.642Z,80.25
2023-03-08T01:04:23.091Z,80.47
2023-03-08T01:06:49.521Z,80.57
2023-03-08T01:09:15.986Z,79.71
2023-03-08T01:11:43.280Z,78.22
2023-03-08T01:14:09.861Z,77.85
2023-03-08T01:16:37.038Z,78.57
2023-03-08T01:19:04.614Z,77.80
2023-03-08T01:21:32.347Z,77.22
2023-03-08T01:23:59.985Z,76.89
2023-03-08T01:26:27.500Z,76.42
2023-03-08T01:28:54.348Z,76.29
2023-03-08T01:31:28.132Z,76.35
2023-03-08T01:33:54.984Z,76.89
2023-03-08T01:36:23.469Z,77.24
2023-03-08T01:38:50.769Z,77.42
2023-03-08T01:41:28.966Z,77.20
2023-03-08T01:43:56.365Z,78.29
2023-03-08T01:46:28.515Z,77.77
2023-03-08T01:49:02.550Z,78.12
2023-03-08T01:51:33.865Z,78.13
2023-03-08T01:54:06.001Z,79.43
2023-03-08T01:56:33.233Z,80.80
2023-03-08T01:59:00.549Z,81.88
2023-03-08T02:01:27.617Z,82.23
2023-03-08T02:03:54.142Z,84.10
2023-03-08T02:06:21.854Z,86.01
2023-03-08T02:08:49.581Z,88.03
2023-03-08T02:11:18.969Z,88.41
2023-03-08T02:13:45.833Z,89.98
2023-03-08T02:16:14.781Z,91.20
2023-03-08T02:18:55.448Z,91.47
2023-03-08T02:21:22.819Z,91.98
2023-03-08T02:23:52.561Z,92.25
2023-03-08T02:26:22.502Z,93.24
2023-03-08T02:28:52.203Z,95.34
2023-03-08T02:31:20.833Z,93.42
2023-03-08T02:33:47.344Z,94.36
2023-03-08T02:36:13.822Z,94.56
2023-03-08T02:38:40.339Z,95.01
2023-03-08T02:41:06.849Z,96.56
2023-03-08T02:43:33.715Z,97.89
2023-03-08T02:46:00.314Z,97.66
2023-03-08T02:48:26.781Z,97.41
2023-03-08T02:50:53.284Z,96.81
2023-03-08T02:53:22.430Z,97.73
2023-03-08T02:55:51.020Z,98.96
2023-03-08T02:58:17.608Z,99.86
2023-03-08T03:00:44.122Z,98.05
2023-03-08T03:03:10.579Z,97.35
2023-03-08T03:05:43.170Z,97.65
2023-03-08T03:08:10.772Z,98.79
2023-03-08T03:10:41.806Z,98.59
2023-03-08T03:13:08.641Z,98.48
2023-03-08T03:15:39.025Z,97.21
2023-03-08T03:18:05.956Z,96.62
2023-03-08T03:20:33.608Z,95.42
2023-03-08T03:23:00.239Z,94.69
2023-03-08T03:25:26.814Z,94.43
2023-03-08T03:27:54.888Z,95.58
2023-03-08T03:30:21.793Z,93.62
2023-03-08T03:32:48.274Z,94.40
2023-03-08T03:35:14.923Z,95.51
2023-03-08T03:37:41.375Z,95.84
2023-03-08T03:40:08.700Z,96.11
2023-03-08T03:42:35.174Z,95.68
2023-03-08T03:45:01.597Z,95.93
2023-03-08T03:47:28.852Z,95.06
2023-03-08T03:49:55.346Z,96.91
2023-03-08T03:52:21.797Z,98.71
2023-03-08T03:54:48.266Z,98.76
2023-03-08T03:57:14.712Z,100.00
2023-03-08T03:59:41.246Z,100.00
2023-03-08T04:02:07.777Z,100.00
2023-03-08T04:04:34.311Z,100.00
2023-03-08T04:07:00.772Z,100.00
2023-03-08T04:09:27.331Z,100.00
2023-03-08T04:11:55.814Z,100.00
2023-03-08T04:14:22.397Z,100.00
2023-03-08T04:16:48.918Z,100.00
2023-03-08T04:19:15.415Z,100.00
2023-03-08T04:21:41.926Z,100.00
2023-03-08T04:24:08.563Z,100.00
2023-03-08T04:26:35.249Z,100.00
2023-03-08T04:29:05.644Z,100.00
2023-03-08T04:31:34.904Z,100.00
2023-03-08T04:34:02.466Z,100.00
2023-03-08T04:36:29.185Z,100.00
2023-03-08T04:38:56.542Z,100.00
2023-03-08T04:41:23.401Z,100.00
2023-03-08T04:43:52.803Z,100.00
2023-03-08T04:46:23.186Z,100.00
2023-03-08T04:48:52.786Z,100.00
2023-03-08T04:51:21.447Z,100.00
2023-03-08T04:53:48.027Z,100.00
2023-03-08T04:56:16.457Z,100.00
2023-03-08T04:58:43.312Z,100.00
2023-03-08T05:01:15.033Z,100.00
2023-03-08T05:03:41.731Z,100.00
2023-03-08T05:06:09.461Z,100.00
2023-03-08T05:08:36.211Z,100.00
2023-03-08T05:11:04.656Z,100.00
2023-03-08T05:13:33.969Z,98.80
2023-03-08T05:16:01.277Z,99.06
2023-03-08T05:18:28.418Z,99.00
2023-03-08T05:21:05.102Z,98.90
2023-03-08T05:23:32.350Z,99.09
2023-03-08T05:26:04.057Z,97.17
2023-03-08T05:28:32.910Z,97.67
2023-03-08T05:31:07.174Z,98.56
2023-03-08T05:33:35.129Z,98.75
2023-03-08T05:36:01.878Z,100.00
2023-03-08T05:38:32.303Z,97.80
2023-03-08T05:41:06.541Z,96.28
2023-03-08T05:43:33.629Z,95.90
2023-03-08T05:46:07.485Z,96.54
2023-03-08T05:48:35.636Z,96.88
2023-03-08T05:51:06.973Z,95.81
2023-03-08T05:53:33.790Z,95.87
2023-03-08T05:56:15.811Z,95.86
2023-03-08T05:58:46.716Z,94.66
2023-03-08T06:01:18.024Z,96.19
2023-03-08T06:03:46.660Z,96.63
2023-03-08T06:06:13.662Z,96.74
2023-03-08T06:08:40.427Z,96.38
2023-03-08T06:11:08.606Z,96.96
2023-03-08T06:13:35.584Z,95.46
2023-03-08T06:16:03.373Z,95.06
2023-03-08T06:18:34.128Z,95.02
2023-03-08T06:21:15.434Z,94.51
2023-03-08T06:23:45.605Z,95.39
2023-03-08T06:26:12.781Z,95.55
2023-03-08T06:28:42.666Z,95.19
2023-03-08T06:31:14.723Z,95.62
2023-03-08T06:33:41.613Z,95.96
2023-03-08T06:36:13.250Z,95.90
2023-03-08T06:38:41.062Z,94.45
2023-03-08T06:41:09.553Z,93.23
2023-03-08T06:43:36.732Z,93.24
2023-03-08T06:46:08.902Z,92.72
2023-03-08T06:48:36.578Z,92.96
2023-03-08T06:51:04.949Z,91.56
2023-03-08T06:53:32.343Z,91.31
2023-03-08T06:56:06.836Z,92.97
2023-03-08T06:58:34.971Z,93.26
2023-03-08T07:01:04.413Z,93.29
2023-03-08T07:03:32.796Z,93.42
2023-03-08T07:06:05.497Z,94.04
2023-03-08T07:08:32.674Z,92.57
2023-03-08T07:11:02.988Z,92.35
2023-03-08T07:13:33.479Z,91.57
2023-03-08T07:16:11.572Z,90.93
2023-03-08T07:18:38.596Z,89.20
2023-03-08T07:21:05.997Z,89.14
2023-03-08T07:23:33.170Z,89.38
2023-03-08T07:26:10.839Z,88.71
2023-03-08T07:28:37.923Z,89.82
2023-03-08T07:31:04.943Z,89.67
2023-03-08T07:33:32.542Z,89.72
2023-03-08T07:36:05.418Z,88.19
2023-03-08T07:38:33.177Z,86.71
2023-03-08T07:41:02.409Z,86.55
2023-03-08T07:43:31.906Z,87.50
2023-03-08T07:46:02.660Z,86.84
2023-03-08T07:48:31.293Z,87.28
2023-03-08T07:51:03.176Z,85.16
2023-03-08T07:53:35.975Z,84.39
2023-03-08T07:56:03.475Z,83.31
2023-03-08T07:58:33.031Z,82.50
2023-03-08T08:01:08.790Z,82.56
2023-03-08T08:03:35.370Z,81.77
2023-03-08T08:06:05.021Z,80.91
2023-03-08T08:08:31.924Z,80.29
2023-03-08T08:11:12.918Z,81.25
2023-03-08T08:13:39.848Z,81.53
2023-03-08T08:16:09.806Z,81.80
2023-03-08T08:18:36.498Z,81.63
2023-03-08T08:21:10.331Z,83.49
2023-03-08T08:23:37.261Z,84.77
2023-03-08T08:26:20.626Z,86.19
2023-03-08T08:28:52.231Z,86.99
2023-03-08T08:31:22.284Z,87.20
2023-03-08T08:33:49.707Z,85.95
2023-03-08T08:36:18.947Z,83.18
2023-03-08T08:38:48.814Z,81.97
2023-03-08T08:41:20.420Z,79.95
2023-03-08T08:43:47.734Z,80.12
2023-03-08T08:46:15.360Z,78.88
2023-03-08T08:48:42.765Z,79.15
2023-03-08T08:51:12.742Z,78.73
2023-03-08T08:53:39.490Z,78.46
2023-03-08T08:56:28.385Z,79.14
2023-03-08T08:59:02.544Z,80.32
2023-03-08T09:01:34.345Z,79.46
2023-03-08T09:04:01.153Z,78.95
2023-03-08T09:06:31.102Z,78.50
2023-03-08T09:09:02.021Z,78.68
2023-03-08T09:11:32.769Z,78.66
2023-03-08T09:14:04.872Z,78.62
2023-03-08T09:16:33.834Z,77.13
2023-03-08T09:19:04.717Z,76.92
2023-03-08T09:21:32.775Z,78.19
2023-03-08T09:24:05.773Z,77.40
2023-03-08T09:26:33.524Z,76.83
2023-03-08T09:29:08.327Z,76.58
2023-03-08T09:31:37.421Z,75.91
2023-03-08T09:34:08.585Z,76.64
2023-03-08T09:36:36.408Z,76.70
2023-03-08T09:39:04.005Z,75.33
2023-03-08T09:41:50.859Z,71.93
2023-03-08T09:45:07.257Z,72.23
2023-03-08T09:48:01.231Z,73.76
2023-03-08T09:50:41.653Z,76.56
2023-03-08T09:53:31.181Z,76.55
2023-03-08T09:56:16.316Z,74.93
2023-03-08T09:58:45.864Z,74.38
2023-03-08T10:01:27.686Z,74.67
2023-03-08T10:04:20.669Z,73.66
2023-03-08T10:07:09.393Z,73.61
2023-03-08T10:09:44.816Z,73.73
2023-03-08T10:12:31.644Z,72.92
2023-03-08T10:15:11.139Z,72.61
2023-03-08T10:17:52.860Z,71.19
2023-03-08T10:20:19.357Z,72.45
2023-03-08T10:22:48.385Z,71.67
2023-03-08T10:25:26.976Z,72.12
2023-03-08T10:27:56.236Z,72.37
2023-03-08T10:30:29.494Z,71.93
2023-03-08T10:33:03.660Z,72.44
2023-03-08T10:35:49.829Z,73.69
2023-03-08T10:38:17.725Z,73.45
2023-03-08T10:40:44.834Z,72.85
2023-03-08T10:43:34.133Z,73.06
2023-03-08T10:46:10.678Z,72.72
2023-03-08T10:48:37.367Z,72.11
2023-03-08T10:51:06.511Z,72.13
2023-03-08T10:53:33.649Z,71.16
2023-03-08T10:56:04.382Z,69.81
2023-03-08T10:58:39.694Z,68.56
2023-03-08T11:01:32.324Z,68.26
2023-03-08T11:04:15.665Z,68.48
2023-03-08T11:06:42.706Z,68.22
2023-03-08T11:09:27.802Z,65.79
2023-03-08T11:11:56.463Z,67.16
2023-03-08T11:14:24.795Z,68.61
2023-03-08T11:17:12.936Z,67.77
2023-03-08T11:20:16.106Z,68.54
2023-03-08T11:22:51.549Z,68.34
2023-03-08T11:25:52.221Z,70.23
2023-03-08T11:28:27.846Z,72.15
2023-03-08T11:31:05.565Z,71.36
2023-03-08T11:33:59.917Z,71.79
2023-03-08T11:36:37.787Z,74.38
2023-03-08T11:39:30.010Z,80.80
2023-03-08T11:42:04.583Z,85.37
2023-03-08T11:44:58.591Z,88.27
2023-03-08T11:47:59.465Z,89.66
2023-03-08T11:50:41.238Z,89.84
2023-03-08T11:53:19.786Z,90.54
2023-03-08T11:56:06.193Z,89.02
2023-03-08T11:58:48.136Z,88.05
2023-03-08T12:01:24.296Z,89.00
2023-03-08T12:03:54.201Z,86.76
2023-03-08T12:06:34.259Z,87.44
2023-03-08T12:09:08.564Z,85.43
2023-03-08T12:11:46.365Z,83.67
2023-03-08T12:14:52.961Z,83.41
2023-03-08T12:17:24.916Z,82.65
2023-03-08T12:19:52.127Z,79.98
2023-03-08T12:22:35.654Z,79.12
2023-03-08T12:25:24.924Z,79.49
2023-03-08T12:28:00.626Z,78.86
2023-03-08T12:30:54.780Z,77.78
2023-03-08T12:33:22.699Z,77.43
2023-03-08T12:35:56.573Z,78.46
2023-03-08T12:38:23.159Z,77.35
2023-03-08T12:40:55.264Z,77.06
2023-03-08T12:43:22.041Z,77.93
2023-03-08T12:46:00.947Z,77.60
2023-03-08T12:48:49.007Z,77.94
2023-03-08T12:51:16.565Z,77.58
2023-03-08T12:53:43.066Z,78.16
2023-03-08T12:56:09.582Z,77.81
2023-03-08T12:58:48.576Z,77.54
2023-03-08T13:01:36.535Z,76.55
2023-03-08T13:04:38.952Z,76.20
2023-03-08T13:07:12.938Z,75.52
2023-03-08T13:09:42.456Z,76.20
2023-03-08T13:12:08.837Z,74.72
2023-03-08T13:15:11.339Z,74.25
2023-03-08T13:17:48.949Z,75.66
2023-03-08T13:20:40.454Z,74.21
2023-03-08T13:23:21.853Z,73.22
2023-03-08T13:26:13.158Z,70.11
2023-03-08T13:28:47.782Z,73.02
2023-03-08T13:31:21.758Z,71.41
2023-03-08T13:33:51.524Z,72.44
2023-03-08T13:36:30.123Z,72.24
2023-03-08T13:39:10.106Z,72.28
2023-03-08T13:41:39.789Z,72.98
2023-03-08T13:44:15.262Z,74.59
2023-03-08T13:46:43.148Z,76.63
2023-03-08T13:49:27.590Z,73.36
2023-03-08T13:51:56.622Z,73.35
2023-03-08T13:54:29.409Z,73.11
2023-03-08T13:57:02.136Z,72.73
2023-03-08T13:59:29.494Z,71.48
2023-03-08T14:01:56.272Z,70.80
2023-03-08T14:04:25.468Z,71.21
2023-03-08T14:06:57.328Z,71.77
2023-03-08T14:09:24.680Z,72.92
2023-03-08T14:12:02.095Z,73.97
2023-03-08T14:14:35.644Z,73.56
2023-03-08T14:17:03.663Z,74.56
2023-03-08T14:19:32.175Z,74.46
2023-03-08T14:22:01.701Z,75.92
2023-03-08T14:24:31.599Z,75.68
2023-03-08T14:27:02.876Z,75.62
2023-03-08T14:29:32.728Z,75.51
2023-03-08T14:32:02.511Z,75.87
2023-03-08T14:34:36.055Z,76.06
2023-03-08T14:37:04.751Z,76.62
2023-03-08T14:39:33.493Z,77.60
2023-03-08T14:42:18.078Z,78.16
2023-03-08T14:44:51.749Z,78.64
2023-03-08T14:47:25.452Z,79.70
2023-03-08T14:50:19.321Z,77.54
2023-03-08T14:52:52.392Z,76.55
2023-03-08T14:55:25.021Z,76.90
2023-03-08T14:57:58.237Z,77.16
2023-03-08T15:00:27.661Z,77.68
2023-03-08T15:02:54.599Z,77.75
2023-03-08T15:05:29.067Z,76.57
2023-03-08T15:07:57.861Z,74.90
2023-03-08T15:10:29.260Z,74.19
2023-03-08T15:12:56.066Z,74.35
2023-03-08T15:15:24.553Z,73.66
2023-03-08T15:17:51.781Z,72.40
2023-03-08T15:20:19.252Z,73.01
2023-03-08T15:22:49.523Z,73.20
2023-03-08T15:25:23.179Z,72.93
2023-03-08T15:27:49.939Z,72.74
2023-03-08T15:30:20.670Z,71.43
2023-03-08T15:32:47.780Z,71.60
2023-03-08T15:35:14.553Z,70.06
2023-03-08T15:37:42.019Z,70.25
2023-03-08T15:40:14.747Z,70.27
2023-03-08T15:42:41.202Z,70.92
2023-03-08T15:45:13.796Z,72.14
2023-03-08T15:47:41.158Z,72.44
2023-03-08T15:50:17.719Z,72.54
2023-03-08T15:52:45.340Z,72.11
2023-03-08T15:55:13.804Z,72.30
2023-03-08T15:57:40.891Z,72.96
2023-03-08T16:00:13.038Z,73.61
2023-03-08T16:02:40.391Z,73.04
2023-03-08T16:05:10.610Z,73.74
2023-03-08T16:07:37.653Z,73.07
2023-03-08T16:10:12.868Z,73.82
2023-03-08T16:12:40.657Z,73.86
2023-03-08T16:15:11.409Z,72.98
2023-03-08T16:17:41.148Z,73.43
2023-03-08T16:20:13.205Z,72.82
2023-03-08T16:22:42.980Z,74.00
2023-03-08T16:25:13.381Z,73.66
2023-03-08T16:27:42.435Z,74.00
2023-03-08T16:30:13.285Z,74.85
2023-03-08T16:32:40.428Z,76.25
2023-03-08T16:35:10.806Z,77.16
2023-03-08T16:37:40.373Z,77.58
2023-03-08T16:40:11.961Z,78.84
2023-03-08T16:42:41.458Z,79.61
2023-03-08T16:45:15.005Z,80.32
2023-03-08T16:47:41.516Z,80.77
2023-03-08T16:50:13.359Z,81.65
2023-03-08T16:52:42.736Z,81.24
2023-03-08T16:55:10.269Z,81.61
2023-03-08T16:57:39.929Z,82.71
2023-03-08T17:00:17.285Z,83.29
2023-03-08T17:02:45.405Z,84.28
2023-03-08T17:05:12.849Z,84.62
2023-03-08T17:07:42.080Z,84.56
2023-03-08T17:10:11.850Z,85.07
2023-03-08T17:12:41.943Z,85.04
2023-03-08T17:15:12.355Z,85.89
2023-03-08T17:17:41.938Z,89.71
2023-03-08T17:20:10.252Z,95.08
2023-03-08T17:22:43.876Z,100.00
2023-03-08T17:25:10.374Z,100.00
2023-03-08T17:27:40.465Z,100.00
2023-03-08T17:30:10.120Z,100.00
2023-03-08T17:32:39.931Z,100.00
2023-03-08T17:35:09.461Z,100.00
2023-03-08T17:37:44.662Z,100.00
2023-03-08T17:40:13.021Z,100.00
2023-03-08T17:42:39.641Z,100.00
2023-03-08T17:45:09.985Z,100.00
2023-03-08T17:47:42.553Z,100.00
2023-03-08T17:50:13.314Z,100.00
2023-03-08T17:52:42.652Z,100.00
2023-03-08T17:55:14.712Z,100.00
2023-03-08T17:57:41.234Z,100.00
2023-03-08T18:00:12.730Z,100.00
2023-03-08T18:02:41.970Z,100.00
2023-03-08T18:05:09.976Z,100.00
2023-03-08T18:07:41.643Z,100.00
2023-03-08T18:10:11.912Z,100.00
2023-03-08T18:12:41.817Z,100.00
2023-03-08T18:15:14.462Z,100.00
2023-03-08T18:17:44.572Z,100.00
2023-03-08T18:20:11.639Z,100.00
2023-03-08T18:22:41.968Z,100.00
2023-03-08T18:25:11.740Z,100.00
2023-03-08T18:27:41.764Z,100.00
2023-03-08T18:30:13.002Z,100.00
2023-03-08T18:32:42.825Z,100.00
2023-03-08T18:35:13.322Z,100.00
2023-03-08T18:37:43.127Z,100.00
2023-03-08T18:40:12.629Z,100.00
2023-03-08T18:42:40.025Z,100.00
2023-03-08T18:45:10.487Z,100.00
2023-03-08T18:47:41.756Z,100.00
2023-03-08T18:50:11.897Z,100.00
2023-03-08T18:52:41.290Z,100.00
2023-03-08T18:55:13.391Z,100.00
2023-03-08T18:57:40.538Z,100.00
2023-03-08T19:00:12.288Z,100.00
2023-03-08T19:02:42.088Z,100.00
2023-03-08T19:05:11.766Z,100.00
2023-03-08T19:07:41.659Z,100.00
2023-03-08T19:10:17.935Z,100.00
2023-03-08T19:12:44.801Z,100.00
2023-03-08T19:15:11.604Z,100.00
2023-03-08T19:17:43.645Z,100.00
2023-03-08T19:20:16.801Z,100.00
2023-03-08T19:22:43.629Z,100.00
2023-03-08T19:25:15.966Z,100.00
2023-03-08T19:27:42.790Z,100.00
2023-03-08T19:30:12.859Z,100.00
2023-03-08T19:32:42.837Z,100.00
2023-03-08T19:35:13.589Z,100.00
2023-03-08T19:37:43.193Z,100.00
2023-03-08T19:40:14.082Z,100.00
2023-03-08T19:42:43.312Z,100.00
2023-03-08T19:45:14.079Z,100.00
2023-03-08T19:47:44.214Z,100.00
2023-03-08T19:50:14.369Z,100.00
2023-03-08T19:52:43.658Z,100.00
2023-03-08T19:55:13.962Z,100.00
2023-03-08T19:57:43.365Z,100.00
2023-03-08T20:00:14.988Z,100.00
2023-03-08T20:02:45.840Z,100.00
2023-03-08T20:05:15.461Z,100.00
2023-03-08T20:07:45.037Z,100.00
2023-03-08T20:10:17.724Z,100.00
2023-03-08T20:12:44.630Z,100.00
2023-03-08T20:15:14.428Z,100.00
2023-03-08T20:17:44.142Z,100.00
2023-03-08T20:20:14.040Z,100.00
2023-03-08T20:22:42.773Z,100.00
2023-03-08T20:25:13.183Z,100.00
2023-03-08T20:27:43.738Z,100.00
2023-03-08T20:30:14.991Z,100.00
2023-03-08T20:32:44.539Z,100.00
2023-03-08T20:35:14.986Z,100.00
2023-03-08T20:37:44.354Z,100.00
2023-03-08T20:40:16.638Z,100.00
2023-03-08T20:42:43.106Z,100.00
2023-03-08T20:45:12.314Z,100.00
2023-03-08T20:47:38.942Z,100.00
2023-03-08T20:50:05.952Z,100.00
2023-03-08T20:52:32.525Z,100.00
2023-03-08T20:54:59.095Z,100.00
2023-03-08T20:57:25.701Z,100.00
2023-03-08T20:59:55.541Z,100.00
2023-03-08T21:02:22.051Z,100.00
2023-03-08T21:04:48.551Z,100.00
2023-03-08T21:07:15.039Z,100.00
2023-03-08T21:09:44.868Z,100.00
2023-03-08T21:12:14.529Z,100.00
2023-03-08T21:14:43.735Z,100.00
2023-03-08T21:17:12.511Z,100.00
2023-03-08T21:19:39.067Z,100.00
2023-03-08T21:22:07.207Z,100.00
2023-03-08T21:24:33.649Z,100.00
2023-03-08T21:27:00.103Z,100.00
2023-03-08T21:29:28.097Z,100.00
2023-03-08T21:31:54.605Z,100.00
2023-03-08T21:34:21.569Z,100.00
2023-03-08T21:36:48.046Z,99.66
2023-03-08T21:39:14.666Z,99.99
2023-03-08T21:41:46.350Z,100.00
2023-03-08T21:44:18.925Z,100.00
2023-03-08T21:46:46.524Z,100.00
2023-03-08T21:49:18.828Z,100.00
2023-03-08T21:51:45.314Z,100.00
2023-03-08T21:54:14.116Z,99.29
2023-03-08T21:56:40.830Z,99.36
2023-03-08T21:59:07.402Z,100.00
2023-03-08T22:01:34.397Z,100.00
2023-03-08T22:04:02.854Z,100.00
2023-03-08T22:06:29.459Z,100.00
2023-03-08T22:08:56.511Z,100.00
2023-03-08T22:11:32.011Z,100.00
2023-03-08T22:14:00.905Z,100.00
2023-03-08T22:16:30.856Z,99.95
2023-03-08T22:18:59.704Z,99.62
2023-03-08T22:21:26.555Z,98.71
2023-03-08T22:23:57.060Z,99.09
2023-03-08T22:26:24.689Z,99.23
2023-03-08T22:28:52.418Z,100.00
2023-03-08T22:31:22.290Z,100.00
2023-03-08T22:33:49.510Z,100.00
2023-03-08T22:36:17.905Z,100.00
2023-03-08T22:38:48.965Z,99.28
2023-03-08T22:41:24.643Z,98.55
2023-03-08T22:43:51.515Z,98.68
2023-03-08T22:46:21.650Z,97.19
2023-03-08T22:48:49.719Z,96.23
2023-03-08T22:51:21.352Z,96.80
2023-03-08T22:53:48.461Z,95.15
2023-03-08T22:56:21.503Z,95.46
2023-03-08T22:58:49.653Z,95.02
2023-03-08T23:01:21.810Z,91.98
2023-03-08T23:03:49.796Z,91.00
2023-03-08T23:06:19.982Z,90.96
2023-03-08T23:08:50.453Z,90.08
2023-03-08T23:11:19.511Z,89.92
2023-03-08T23:13:48.259Z,88.66
2023-03-08T23:16:18.766Z,88.12
2023-03-08T23:18:51.606Z,87.78
2023-03-08T23:21:23.509Z,86.48
2023-03-08T23:23:49.998Z,85.47
2023-03-08T23:26:26.794Z,85.90
2023-03-08T23:28:57.749Z,85.30
2023-03-08T23:31:26.386Z,84.58
2023-03-08T23:33:52.900Z,84.20
2023-03-08T23:36:25.593Z,83.33
2023-03-08T23:38:53.317Z,82.14
2023-03-08T23:41:22.587Z,82.56
2023-03-08T23:43:54.424Z,81.40
2023-03-08T23:46:21.034Z,81.76
2023-03-08T23:48:51.836Z,81.29
2023-03-08T23:51:23.174Z,79.68
2023-03-08T23:53:53.427Z,79.09
2023-03-08T23:56:37.684Z,78.63
2023-03-08T23:59:11.844Z,78.39
